createdAt,value
2022-11-07T00:00:30.044Z,3.90
2022-11-07T00:02:01.773Z,5.18
2022-11-07T00:03:33.404Z,4.97
2022-11-07T00:05:05.380Z,9.35
2022-11-07T00:06:37.933Z,9.55
2022-11-07T00:08:09.477Z,11.98
2022-11-07T00:09:41.113Z,7.63
2022-11-07T00:11:12.798Z,6.97
2022-11-07T00:12:44.408Z,6.43
2022-11-07T00:14:17.116Z,4.40
2022-11-07T00:15:48.944Z,3.75
2022-11-07T00:17:20.590Z,3.78
2022-11-07T00:18:52.716Z,4.28
2022-11-07T00:20:24.567Z,3.70
2022-11-07T00:21:56.141Z,3.50
2022-11-07T00:23:27.693Z,3.80
2022-11-07T00:24:59.261Z,3.20
2022-11-07T00:26:30.857Z,3.50
2022-11-07T00:28:02.354Z,4.07
2022-11-07T00:29:33.966Z,3.28
2022-11-07T00:31:07.114Z,3.17
2022-11-07T00:32:38.648Z,3.60
2022-11-07T00:34:10.445Z,2.97
2022-11-07T00:35:42.682Z,3.28
2022-11-07T00:37:14.247Z,3.40
2022-11-07T00:38:48.925Z,3.40
2022-11-07T00:40:20.699Z,3.42
2022-11-07T00:41:52.237Z,2.50
2022-11-07T00:43:24.567Z,2.38
2022-11-07T00:44:56.315Z,3.13
2022-11-07T00:46:28.034Z,2.80
2022-11-07T00:47:59.585Z,3.58
2022-11-07T00:49:31.213Z,4.75
2022-11-07T00:51:23.709Z,4.38
2022-11-07T00:52:57.298Z,3.42
2022-11-07T00:54:28.919Z,4.07
2022-11-07T00:56:04.705Z,3.70
2022-11-07T00:57:36.291Z,5.22
2022-11-07T00:59:07.910Z,3.47
2022-11-07T01:00:39.428Z,3.50
2022-11-07T01:02:11.121Z,3.58
2022-11-07T01:04:01.691Z,3.65
2022-11-07T01:05:33.244Z,3.35
2022-11-07T01:07:06.860Z,3.72
2022-11-07T01:08:38.452Z,3.65
2022-11-07T01:10:10.013Z,3.10
2022-11-07T01:11:42.297Z,2.83
2022-11-07T01:13:13.964Z,3.90
2022-11-07T01:14:45.699Z,2.80
2022-11-07T01:16:17.266Z,2.90
2022-11-07T01:17:48.807Z,3.58
2022-11-07T01:19:20.649Z,16.20
2022-11-07T01:20:52.825Z,3.70
2022-11-07T01:22:24.388Z,4.43
2022-11-07T01:23:56.322Z,4.25
2022-11-07T01:25:27.902Z,4.60
2022-11-07T01:26:59.467Z,3.15
2022-11-07T01:28:31.567Z,3.95
2022-11-07T01:30:03.899Z,3.63
2022-11-07T01:31:35.917Z,3.13
2022-11-07T01:33:07.834Z,3.97
2022-11-07T01:34:39.322Z,3.38
2022-11-07T01:36:13.957Z,5.10
2022-11-07T01:37:45.479Z,3.70
2022-11-07T01:39:17.214Z,4.40
2022-11-07T01:41:07.325Z,4.55
2022-11-07T01:42:38.827Z,3.58
2022-11-07T01:44:10.373Z,2.95
2022-11-07T01:45:41.934Z,3.30
2022-11-07T01:47:13.475Z,3.75
2022-11-07T01:48:59.442Z,3.25
2022-11-07T01:50:31.205Z,3.88
2022-11-07T01:52:08.246Z,3.65
2022-11-07T01:53:40.961Z,3.95
2022-11-07T01:55:21.282Z,4.13
2022-11-07T01:56:55.699Z,4.95
2022-11-07T01:58:27.541Z,4.18
2022-11-07T02:00:01.920Z,5.55
2022-11-07T02:01:36.327Z,3.70
2022-11-07T02:03:11.244Z,3.70
2022-11-07T02:04:43.127Z,4.38
2022-11-07T02:06:21.396Z,3.63
2022-11-07T02:07:53.831Z,4.15
2022-11-07T02:09:25.502Z,4.95
2022-11-07T02:11:00.088Z,3.80
2022-11-07T02:12:31.842Z,4.55
2022-11-07T02:14:03.670Z,3.55
2022-11-07T02:15:36.656Z,3.40
2022-11-07T02:17:09.048Z,4.25
2022-11-07T02:18:43.429Z,5.13
2022-11-07T02:20:52.257Z,4.75
2022-11-07T02:22:36.390Z,6.38
2022-11-07T02:24:07.880Z,4.75
2022-11-07T02:25:39.516Z,4.50
2022-11-07T02:27:14.725Z,4.93
2022-11-07T02:28:48.423Z,4.78
2022-11-07T02:30:33.811Z,5.22
2022-11-07T02:32:11.005Z,5.70
2022-11-07T02:33:42.562Z,4.30
2022-11-07T02:35:38.925Z,4.00
2022-11-07T02:37:22.966Z,5.13
2022-11-07T02:38:58.699Z,4.95
2022-11-07T02:40:31.379Z,5.32
2022-11-07T02:42:04.086Z,5.03
2022-11-07T02:43:39.131Z,5.45
2022-11-07T02:45:12.201Z,4.25
2022-11-07T02:46:43.796Z,4.30
2022-11-07T02:48:15.355Z,4.45
2022-11-07T02:49:46.940Z,3.80
2022-11-07T02:51:18.663Z,4.38
2022-11-07T02:52:50.266Z,4.05
2022-11-07T02:54:21.853Z,4.55
2022-11-07T02:55:53.434Z,3.80
2022-11-07T02:57:24.964Z,4.00
2022-11-07T02:58:56.559Z,4.13
2022-11-07T03:00:28.608Z,4.13
2022-11-07T03:02:00.253Z,4.35
2022-11-07T03:03:31.919Z,4.13
2022-11-07T03:05:04.349Z,3.72
2022-11-07T03:06:35.832Z,5.22
2022-11-07T03:08:07.557Z,4.13
2022-11-07T03:09:39.082Z,6.18
2022-11-07T03:11:12.441Z,3.88
2022-11-07T03:12:44.035Z,4.28
2022-11-07T03:14:15.727Z,7.40
2022-11-07T03:15:47.282Z,4.05
2022-11-07T03:17:18.810Z,3.85
2022-11-07T03:18:50.382Z,4.78
2022-11-07T03:20:22.055Z,5.50
2022-11-07T03:21:53.641Z,3.88
2022-11-07T03:23:25.158Z,3.15
2022-11-07T03:24:56.695Z,3.72
2022-11-07T03:26:28.224Z,3.38
2022-11-07T03:27:59.853Z,5.68
2022-11-07T03:29:31.359Z,3.80
2022-11-07T03:31:04.581Z,4.50
2022-11-07T03:32:36.136Z,4.53
2022-11-07T03:34:07.724Z,3.10
2022-11-07T03:35:39.249Z,3.92
2022-11-07T03:37:10.816Z,4.53
2022-11-07T03:38:42.332Z,4.00
2022-11-07T03:40:14.580Z,3.42
2022-11-07T03:41:46.060Z,4.68
2022-11-07T03:43:17.822Z,4.25
2022-11-07T03:44:49.521Z,3.58
2022-11-07T03:46:21.078Z,4.03
2022-11-07T03:47:52.636Z,5.88
2022-11-07T03:49:24.187Z,5.90
2022-11-07T03:50:55.739Z,7.40
2022-11-07T03:52:27.300Z,6.57
2022-11-07T03:53:58.786Z,7.97
2022-11-07T03:55:30.373Z,8.75
2022-11-07T03:57:01.924Z,8.32
2022-11-07T03:58:33.487Z,4.43
2022-11-07T04:00:06.208Z,8.27
2022-11-07T04:01:45.040Z,6.93
2022-11-07T04:03:17.184Z,4.65
2022-11-07T04:04:49.592Z,4.72
2022-11-07T04:06:22.874Z,4.50
2022-11-07T04:07:54.402Z,5.13
2022-11-07T04:09:25.935Z,4.40
2022-11-07T04:10:57.602Z,4.05
2022-11-07T04:12:47.710Z,4.28
2022-11-07T04:14:37.654Z,7.18
2022-11-07T04:16:30.140Z,4.15
2022-11-07T04:18:01.685Z,3.83
2022-11-07T04:19:33.194Z,3.85
2022-11-07T04:21:04.786Z,6.32
2022-11-07T04:22:36.408Z,3.83
2022-11-07T04:24:07.959Z,5.00
2022-11-07T04:25:58.038Z,3.35
2022-11-07T04:27:44.501Z,4.65
2022-11-07T04:29:16.007Z,3.88
2022-11-07T04:30:47.641Z,3.53
2022-11-07T04:32:19.122Z,4.00
2022-11-07T04:33:50.847Z,3.13
2022-11-07T04:35:25.028Z,3.38
2022-11-07T04:36:56.566Z,3.67
2022-11-07T04:38:28.106Z,3.72
2022-11-07T04:39:59.640Z,6.68
2022-11-07T04:41:31.189Z,4.22
2022-11-07T04:43:08.922Z,3.53
2022-11-07T04:44:40.470Z,3.67
2022-11-07T04:46:12.044Z,3.90
2022-11-07T04:47:44.195Z,3.47
2022-11-07T04:49:15.681Z,5.03
2022-11-07T04:50:47.610Z,5.05
2022-11-07T04:52:19.185Z,3.75
2022-11-07T04:53:50.753Z,3.38
2022-11-07T04:55:27.824Z,3.97
2022-11-07T04:56:59.442Z,6.32
2022-11-07T04:58:30.969Z,4.38
2022-11-07T05:00:04.556Z,3.92
2022-11-07T05:01:36.125Z,4.18
2022-11-07T05:03:08.938Z,4.40
2022-11-07T05:04:40.774Z,3.83
2022-11-07T05:06:14.587Z,6.35
2022-11-07T05:07:46.426Z,4.63
2022-11-07T05:09:18.676Z,4.03
2022-11-07T05:10:50.297Z,4.38
2022-11-07T05:12:21.801Z,4.95
2022-11-07T05:13:53.302Z,5.97
2022-11-07T05:15:24.892Z,5.90
2022-11-07T05:16:57.267Z,4.25
2022-11-07T05:18:28.814Z,6.32
2022-11-07T05:20:00.342Z,6.30
2022-11-07T05:21:31.964Z,5.00
2022-11-07T05:23:15.127Z,4.93
2022-11-07T05:24:47.326Z,5.82
2022-11-07T05:26:19.376Z,4.82
2022-11-07T05:27:55.319Z,4.97
2022-11-07T05:29:27.014Z,4.53
2022-11-07T05:31:04.273Z,5.47
2022-11-07T05:32:38.396Z,5.60
2022-11-07T05:34:14.469Z,5.35
2022-11-07T05:35:46.874Z,9.43
2022-11-07T05:37:18.445Z,6.70
2022-11-07T05:38:52.023Z,6.82
2022-11-07T05:40:23.615Z,6.60
2022-11-07T05:41:55.133Z,8.20
2022-11-07T05:43:26.737Z,4.40
2022-11-07T05:44:58.266Z,5.10
2022-11-07T05:46:29.969Z,5.65
2022-11-07T05:48:03.613Z,4.43
2022-11-07T05:49:35.136Z,5.63
2022-11-07T05:51:07.635Z,4.55
2022-11-07T05:52:39.262Z,5.22
2022-11-07T05:54:10.859Z,4.80
2022-11-07T05:55:42.526Z,5.25
2022-11-07T05:57:14.119Z,4.93
2022-11-07T05:58:45.656Z,5.57
2022-11-07T06:00:17.958Z,6.72
2022-11-07T06:01:51.291Z,6.35
2022-11-07T06:03:23.042Z,6.40
2022-11-07T06:04:54.689Z,4.60
2022-11-07T06:06:26.170Z,5.90
2022-11-07T06:07:58.061Z,4.90
2022-11-07T06:09:29.586Z,8.27
2022-11-07T06:11:05.170Z,4.82
2022-11-07T06:12:36.702Z,5.03
2022-11-07T06:14:08.510Z,5.72
2022-11-07T06:15:41.205Z,4.40
2022-11-07T06:17:12.717Z,7.50
2022-11-07T06:18:44.241Z,5.15
2022-11-07T06:20:16.223Z,7.53
2022-11-07T06:21:47.769Z,4.95
2022-11-07T06:23:19.918Z,4.03
2022-11-07T06:24:51.812Z,5.15
2022-11-07T06:26:23.271Z,7.60
2022-11-07T06:28:00.027Z,4.07
2022-11-07T06:29:31.742Z,4.40
2022-11-07T06:31:04.493Z,4.80
2022-11-07T06:32:36.685Z,3.90
2022-11-07T06:34:08.277Z,4.00
2022-11-07T06:35:39.916Z,8.30
2022-11-07T06:37:11.402Z,7.90
2022-11-07T06:38:42.957Z,6.65
2022-11-07T06:40:14.469Z,6.32
2022-11-07T06:41:46.101Z,5.43
2022-11-07T06:43:19.980Z,5.35
2022-11-07T06:44:51.891Z,4.63
2022-11-07T06:46:25.438Z,4.93
2022-11-07T06:47:57.048Z,5.43
2022-11-07T06:49:28.576Z,5.05
2022-11-07T06:51:02.067Z,5.90
2022-11-07T06:52:33.680Z,5.95
2022-11-07T06:54:05.373Z,5.22
2022-11-07T06:55:38.261Z,5.13
2022-11-07T06:57:10.170Z,5.95
2022-11-07T06:58:42.055Z,6.22
2022-11-07T07:00:14.544Z,5.32
2022-11-07T07:01:46.192Z,4.90
2022-11-07T07:03:18.150Z,6.07
2022-11-07T07:04:50.047Z,5.40
2022-11-07T07:06:21.654Z,6.20
2022-11-07T07:07:54.943Z,4.18
2022-11-07T07:09:26.509Z,5.47
2022-11-07T07:11:02.400Z,6.00
2022-11-07T07:12:34.940Z,5.80
2022-11-07T07:14:11.384Z,8.02
2022-11-07T07:15:51.761Z,8.60
2022-11-07T07:17:23.329Z,6.60
2022-11-07T07:18:54.930Z,6.45
2022-11-07T07:20:26.836Z,5.60
2022-11-07T07:21:58.428Z,5.90
2022-11-07T07:23:30.271Z,5.25
2022-11-07T07:25:01.841Z,5.15
2022-11-07T07:26:33.440Z,5.45
2022-11-07T07:28:05.051Z,5.50
2022-11-07T07:29:36.593Z,9.00
2022-11-07T07:31:10.596Z,9.20
2022-11-07T07:32:42.278Z,14.70
2022-11-07T07:34:14.580Z,29.80
2022-11-07T07:35:46.216Z,23.40
2022-11-07T07:37:18.440Z,41.63
2022-11-07T07:38:50.998Z,40.83
2022-11-07T07:40:22.761Z,40.30
2022-11-07T07:41:54.540Z,26.27
2022-11-07T07:43:29.206Z,31.83
2022-11-07T07:45:00.849Z,29.02
2022-11-07T07:46:32.400Z,20.23
2022-11-07T07:48:04.294Z,24.98
2022-11-07T07:49:36.074Z,19.58
2022-11-07T07:51:08.018Z,14.63
2022-11-07T07:52:39.796Z,16.95
2022-11-07T07:54:12.023Z,16.25
2022-11-07T07:55:43.948Z,9.65
2022-11-07T07:57:15.631Z,7.93
2022-11-07T07:58:47.354Z,7.63
2022-11-07T08:00:19.164Z,15.73
2022-11-07T08:01:56.303Z,18.13
2022-11-07T08:03:32.215Z,26.10
2022-11-07T08:05:07.154Z,18.15
2022-11-07T08:06:38.732Z,13.98
2022-11-07T08:08:10.545Z,29.92
2022-11-07T08:09:42.025Z,23.40
2022-11-07T08:11:13.611Z,27.67
2022-11-07T08:12:49.865Z,38.85
2022-11-07T08:14:21.452Z,31.40
2022-11-07T08:15:53.393Z,26.88
2022-11-07T08:17:24.954Z,36.30
2022-11-07T08:18:56.531Z,33.55
2022-11-07T08:20:28.208Z,32.63
2022-11-07T08:21:59.844Z,29.90
2022-11-07T08:23:31.755Z,25.05
2022-11-07T08:25:05.138Z,20.15
2022-11-07T08:26:37.778Z,16.20
2022-11-07T08:28:09.403Z,15.18
2022-11-07T08:29:42.054Z,13.93
2022-11-07T08:31:13.758Z,17.13
2022-11-07T08:32:45.670Z,20.00
2022-11-07T08:34:18.599Z,14.60
2022-11-07T08:35:50.225Z,14.45
2022-11-07T08:37:22.662Z,13.07
2022-11-07T08:38:54.323Z,12.98
2022-11-07T08:40:26.226Z,14.27
2022-11-07T08:41:57.915Z,16.30
2022-11-07T08:43:29.562Z,17.80
2022-11-07T08:45:01.110Z,16.00
2022-11-07T08:46:32.704Z,16.25
2022-11-07T08:48:05.061Z,13.30
2022-11-07T08:49:36.701Z,18.73
2022-11-07T08:51:09.205Z,20.98
2022-11-07T08:52:40.893Z,14.48
2022-11-07T08:54:13.020Z,16.73
2022-11-07T08:55:44.697Z,13.80
2022-11-07T08:57:16.431Z,15.10
2022-11-07T08:58:48.031Z,19.70
2022-11-07T09:00:19.985Z,13.80
2022-11-07T09:02:28.070Z,16.95
2022-11-07T09:03:48.781Z,16.15
2022-11-07T09:05:22.264Z,16.92
2022-11-07T09:06:53.881Z,20.15
2022-11-07T09:08:25.537Z,15.40
2022-11-07T09:09:57.137Z,14.05
2022-11-07T09:11:28.730Z,16.75
2022-11-07T09:13:00.420Z,18.75
2022-11-07T09:14:31.975Z,17.48
2022-11-07T09:16:04.932Z,16.20
2022-11-07T09:17:36.468Z,20.42
2022-11-07T09:19:08.099Z,18.05
2022-11-07T09:20:39.729Z,17.80
2022-11-07T09:22:11.267Z,22.50
2022-11-07T09:23:42.916Z,20.25
2022-11-07T09:25:14.467Z,37.00
2022-11-07T09:26:46.068Z,74.68
2022-11-07T09:28:17.637Z,36.88
2022-11-07T09:29:49.195Z,47.40
2022-11-07T09:31:21.648Z,53.03
2022-11-07T09:32:55.527Z,79.28
2022-11-07T09:34:27.063Z,77.03
2022-11-07T09:36:02.743Z,69.20
2022-11-07T09:37:34.300Z,63.25
2022-11-07T09:39:06.319Z,27.75
2022-11-07T09:40:50.034Z,26.75
2022-11-07T09:42:36.672Z,32.10
2022-11-07T09:44:26.653Z,31.02
2022-11-07T09:46:10.999Z,28.67
2022-11-07T09:47:54.447Z,21.63
2022-11-07T09:49:37.301Z,96.53
2022-11-07T09:51:15.649Z,107.72
2022-11-07T09:52:52.431Z,174.02
2022-11-07T09:54:29.153Z,114.82
2022-11-07T09:56:05.257Z,54.45
2022-11-07T09:57:37.879Z,128.23
2022-11-07T09:59:21.536Z,83.97
2022-11-07T10:00:56.218Z,78.35
2022-11-07T10:02:32.582Z,59.30
2022-11-07T10:04:24.196Z,51.63
2022-11-07T10:06:05.388Z,25.23
2022-11-07T10:07:48.532Z,24.80
2022-11-07T10:09:46.201Z,16.85
2022-11-07T10:11:36.230Z,25.30
2022-11-07T10:13:26.768Z,21.88
2022-11-07T10:15:21.573Z,17.40
2022-11-07T10:16:56.068Z,13.45
2022-11-07T10:18:45.875Z,7.95
2022-11-07T10:20:23.487Z,6.97
2022-11-07T10:22:16.919Z,15.38
2022-11-07T10:23:54.936Z,8.65
2022-11-07T10:25:41.706Z,5.40
2022-11-07T10:27:13.587Z,3.67
2022-11-07T10:29:17.566Z,5.85
2022-11-07T10:30:54.304Z,5.95
2022-11-07T10:32:41.540Z,4.88
2022-11-07T10:34:36.604Z,6.40
2022-11-07T10:36:14.987Z,4.45
2022-11-07T10:37:54.288Z,3.33
2022-11-07T10:39:25.972Z,4.40
2022-11-07T10:40:57.603Z,3.53
2022-11-07T10:42:31.386Z,5.55
2022-11-07T10:44:11.302Z,4.15
2022-11-07T10:45:42.923Z,6.05
2022-11-07T10:47:20.259Z,4.00
2022-11-07T10:48:57.881Z,5.20
2022-11-07T10:50:30.134Z,4.95
2022-11-07T10:52:18.109Z,3.35
2022-11-07T10:53:50.651Z,6.47
2022-11-07T10:55:23.636Z,4.57
2022-11-07T10:57:11.455Z,7.00
2022-11-07T10:58:44.506Z,3.65
2022-11-07T11:00:30.139Z,4.95
2022-11-07T11:02:02.217Z,4.10
2022-11-07T11:03:45.429Z,3.97
2022-11-07T11:05:43.712Z,6.95
2022-11-07T11:07:15.225Z,6.78
2022-11-07T11:08:48.546Z,6.97
2022-11-07T11:10:27.256Z,5.40
2022-11-07T11:12:03.472Z,7.32
2022-11-07T11:13:35.939Z,2.90
2022-11-07T11:15:13.636Z,4.78
2022-11-07T11:16:47.068Z,3.72
2022-11-07T11:18:19.188Z,3.42
2022-11-07T11:19:53.446Z,5.60
2022-11-07T11:21:25.695Z,5.75
2022-11-07T11:22:57.720Z,4.40
2022-11-07T11:24:39.729Z,3.90
2022-11-07T11:26:31.812Z,6.55
2022-11-07T11:28:10.345Z,6.07
2022-11-07T11:29:45.260Z,5.13
2022-11-07T11:31:19.801Z,4.28
2022-11-07T11:33:06.600Z,4.20
2022-11-07T11:34:58.171Z,3.17
2022-11-07T11:36:36.741Z,3.95
2022-11-07T11:38:22.802Z,2.30
2022-11-07T11:40:02.332Z,4.82
2022-11-07T11:41:57.679Z,4.15
2022-11-07T11:43:38.874Z,6.07
2022-11-07T11:45:17.859Z,4.75
2022-11-07T11:47:01.137Z,2.58
2022-11-07T11:48:39.893Z,3.92
2022-11-07T11:50:17.485Z,5.78
2022-11-07T11:51:52.674Z,3.25
2022-11-07T11:53:24.267Z,5.30
2022-11-07T11:54:57.877Z,5.00
2022-11-07T11:57:01.158Z,3.67
2022-11-07T11:59:00.743Z,3.25
2022-11-07T12:00:39.816Z,4.20
2022-11-07T12:02:50.123Z,5.63
2022-11-07T12:04:45.984Z,3.38
2022-11-07T12:06:43.441Z,4.25
2022-11-07T12:08:18.005Z,3.63
2022-11-07T12:10:07.578Z,6.38
2022-11-07T12:12:20.714Z,6.45
2022-11-07T12:14:08.411Z,4.15
2022-11-07T12:15:45.828Z,4.85
2022-11-07T12:17:52.559Z,3.83
2022-11-07T12:19:47.884Z,4.68
2022-11-07T12:21:25.372Z,3.92
2022-11-07T12:23:29.931Z,5.40
2022-11-07T12:25:33.649Z,3.65
2022-11-07T12:27:26.938Z,3.38
2022-11-07T12:29:14.544Z,3.08
2022-11-07T12:31:06.192Z,3.72
2022-11-07T12:33:01.620Z,6.00
2022-11-07T12:34:46.390Z,5.00
2022-11-07T12:36:37.542Z,4.00
2022-11-07T12:38:24.330Z,3.65
2022-11-07T12:39:58.881Z,4.45
2022-11-07T12:41:41.293Z,5.72
2022-11-07T12:43:28.329Z,3.80
2022-11-07T12:45:02.638Z,4.07
2022-11-07T12:46:53.102Z,4.78
2022-11-07T12:48:39.805Z,3.72
2022-11-07T12:50:14.192Z,3.20
2022-11-07T12:52:22.232Z,4.25
2022-11-07T12:54:38.432Z,4.45
2022-11-07T12:56:33.000Z,2.63
2022-11-07T12:58:09.043Z,5.65
2022-11-07T12:59:44.974Z,2.75
2022-11-07T13:01:24.084Z,3.78
2022-11-07T13:03:10.973Z,4.53
2022-11-07T13:05:04.815Z,3.85
2022-11-07T13:06:42.219Z,2.95
2022-11-07T13:08:27.015Z,3.28
2022-11-07T13:10:23.866Z,5.25
2022-11-07T13:12:31.366Z,2.65
2022-11-07T13:14:24.281Z,5.63
2022-11-07T13:16:21.122Z,3.65
2022-11-07T13:17:52.748Z,3.03
2022-11-07T13:19:32.702Z,3.10
2022-11-07T13:21:06.662Z,2.63
2022-11-07T13:22:40.118Z,3.97
2022-11-07T13:24:22.378Z,3.05
2022-11-07T13:26:14.780Z,2.70
2022-11-07T13:27:55.050Z,3.95
2022-11-07T13:29:39.265Z,3.75
2022-11-07T13:31:32.851Z,3.15
2022-11-07T13:33:06.037Z,3.00
2022-11-07T13:34:42.391Z,5.50
2022-11-07T13:36:25.898Z,5.25
2022-11-07T13:38:09.304Z,3.08
2022-11-07T13:39:41.165Z,3.45
2022-11-07T13:41:12.910Z,5.97
2022-11-07T13:42:46.741Z,2.95
2022-11-07T13:44:23.698Z,2.25
2022-11-07T13:45:58.101Z,2.88
2022-11-07T13:47:37.450Z,6.18
2022-11-07T13:49:20.002Z,3.40
2022-11-07T13:51:18.058Z,4.38
2022-11-07T13:52:52.274Z,4.45
2022-11-07T13:54:31.140Z,3.78
2022-11-07T13:56:30.740Z,3.55
2022-11-07T13:58:07.497Z,3.47
2022-11-07T13:59:58.074Z,3.10
2022-11-07T14:01:42.480Z,5.45
2022-11-07T14:03:29.119Z,3.60
2022-11-07T14:05:21.797Z,3.88
2022-11-07T14:07:01.359Z,6.35
2022-11-07T14:08:39.655Z,4.57
2022-11-07T14:10:44.678Z,3.65
2022-11-07T14:12:19.829Z,6.20
2022-11-07T14:13:53.890Z,4.40
2022-11-07T14:15:25.451Z,5.85
2022-11-07T14:17:00.501Z,4.97
2022-11-07T14:18:37.674Z,3.53
2022-11-07T14:20:12.035Z,7.20
2022-11-07T14:21:46.082Z,3.28
2022-11-07T14:23:23.894Z,3.53
2022-11-07T14:24:57.397Z,5.20
2022-11-07T14:26:32.716Z,3.65
2022-11-07T14:28:14.707Z,5.13
2022-11-07T14:29:59.760Z,5.80
2022-11-07T14:31:38.229Z,6.57
2022-11-07T14:33:18.849Z,4.05
2022-11-07T14:34:53.334Z,6.15
2022-11-07T14:36:25.762Z,5.10
2022-11-07T14:37:58.621Z,4.85
2022-11-07T14:39:32.162Z,4.53
2022-11-07T14:41:03.846Z,6.57
2022-11-07T14:42:35.568Z,6.03
2022-11-07T14:44:11.748Z,4.85
2022-11-07T14:46:11.250Z,4.63
2022-11-07T14:47:36.783Z,4.18
2022-11-07T14:49:42.725Z,4.43
2022-11-07T14:51:18.661Z,7.63
2022-11-07T14:53:02.829Z,4.82
2022-11-07T14:54:41.482Z,3.22
2022-11-07T14:56:18.137Z,5.00
2022-11-07T14:57:50.892Z,5.53
2022-11-07T14:59:25.785Z,4.00
2022-11-07T15:01:06.571Z,4.72
2022-11-07T15:02:38.551Z,6.57
2022-11-07T15:04:27.084Z,6.15
2022-11-07T15:07:33.506Z,4.13
2022-11-07T15:09:07.644Z,4.55
2022-11-07T15:10:41.175Z,5.40
2022-11-07T15:12:38.136Z,3.00
2022-11-07T15:14:31.291Z,6.97
2022-11-07T15:16:22.549Z,4.07
2022-11-07T15:17:57.587Z,3.70
2022-11-07T15:19:29.440Z,3.58
2022-11-07T15:21:02.174Z,6.60
2022-11-07T15:22:39.273Z,4.43
2022-11-07T15:24:46.475Z,5.40
2022-11-07T15:26:21.791Z,3.95
2022-11-07T15:27:53.827Z,4.85
2022-11-07T15:29:25.369Z,6.57
2022-11-07T15:31:00.454Z,5.47
2022-11-07T15:32:36.604Z,7.60
2022-11-07T15:34:11.286Z,3.47
2022-11-07T15:35:45.076Z,4.18
2022-11-07T15:37:21.856Z,8.02
2022-11-07T15:38:54.124Z,6.90
2022-11-07T15:40:27.007Z,7.13
2022-11-07T15:41:58.612Z,5.07
2022-11-07T15:43:30.238Z,4.88
2022-11-07T15:45:01.815Z,6.78
2022-11-07T15:46:35.619Z,7.55
2022-11-07T15:48:08.462Z,5.85
2022-11-07T15:49:40.196Z,13.15
2022-11-07T15:51:12.023Z,15.23
2022-11-07T15:52:45.074Z,8.93
2022-11-07T15:54:18.736Z,20.40
2022-11-07T15:55:56.011Z,19.48
2022-11-07T15:57:27.625Z,11.00
2022-11-07T15:58:59.497Z,12.52
2022-11-07T16:00:31.047Z,8.38
2022-11-07T16:02:02.861Z,9.50
2022-11-07T16:03:34.660Z,10.63
2022-11-07T16:05:06.739Z,5.25
2022-11-07T16:06:43.524Z,9.38
2022-11-07T16:08:20.270Z,6.15
2022-11-07T16:09:51.866Z,5.72
2022-11-07T16:11:24.260Z,4.05
2022-11-07T16:12:55.873Z,4.70
2022-11-07T16:14:43.378Z,6.30
2022-11-07T16:16:22.187Z,8.60
2022-11-07T16:17:53.776Z,5.35
2022-11-07T16:19:30.081Z,7.30
2022-11-07T16:21:01.664Z,6.45
2022-11-07T16:22:33.246Z,5.63
2022-11-07T16:24:05.214Z,8.75
2022-11-07T16:25:40.292Z,7.93
2022-11-07T16:27:17.518Z,9.95
2022-11-07T16:28:50.066Z,8.07
2022-11-07T16:30:22.472Z,4.43
2022-11-07T16:31:54.043Z,8.02
2022-11-07T16:33:27.139Z,4.95
2022-11-07T16:34:58.661Z,7.03
2022-11-07T16:36:32.804Z,9.63
2022-11-07T16:38:15.752Z,7.22
2022-11-07T16:39:47.754Z,7.25
2022-11-07T16:41:19.521Z,9.88
2022-11-07T16:42:51.087Z,11.73
2022-11-07T16:44:26.305Z,9.27
2022-11-07T16:45:58.157Z,6.25
2022-11-07T16:47:31.882Z,9.05
2022-11-07T16:49:21.131Z,7.10
2022-11-07T16:50:53.888Z,8.13
2022-11-07T16:52:28.125Z,10.98
2022-11-07T16:53:59.787Z,8.25
2022-11-07T16:55:32.196Z,5.90
2022-11-07T16:57:03.727Z,12.32
2022-11-07T16:58:38.146Z,8.70
2022-11-07T17:00:22.716Z,12.57
2022-11-07T17:01:54.379Z,9.27
2022-11-07T17:03:27.057Z,8.98
2022-11-07T17:04:58.643Z,7.85
2022-11-07T17:06:32.730Z,10.15
2022-11-07T17:08:05.244Z,9.80
2022-11-07T17:09:36.772Z,10.23
2022-11-07T17:11:12.413Z,12.30
2022-11-07T17:12:44.056Z,10.77
2022-11-07T17:14:15.681Z,11.60
2022-11-07T17:15:47.213Z,10.93
2022-11-07T17:17:19.148Z,8.90
2022-11-07T17:18:52.208Z,10.27
2022-11-07T17:20:49.337Z,6.97
2022-11-07T17:22:15.622Z,11.43
2022-11-07T17:23:47.252Z,7.80
2022-11-07T17:25:18.775Z,9.02
2022-11-07T17:26:50.301Z,10.60
2022-11-07T17:28:22.048Z,9.20
2022-11-07T17:29:54.367Z,8.73
2022-11-07T17:31:26.041Z,7.15
2022-11-07T17:32:57.584Z,9.10
2022-11-07T17:34:29.175Z,8.00
2022-11-07T17:36:00.811Z,11.07
2022-11-07T17:37:32.382Z,11.10
2022-11-07T17:39:11.334Z,8.93
2022-11-07T17:40:43.386Z,8.63
2022-11-07T17:42:15.426Z,8.18
2022-11-07T17:43:47.923Z,9.80
2022-11-07T17:45:19.494Z,8.93
2022-11-07T17:46:51.062Z,9.30
2022-11-07T17:48:22.636Z,12.55
2022-11-07T17:49:54.669Z,13.48
2022-11-07T17:51:29.290Z,12.43
2022-11-07T17:53:00.890Z,12.48
2022-11-07T17:54:32.429Z,10.80
2022-11-07T17:56:04.964Z,12.57
2022-11-07T17:57:38.068Z,11.70
2022-11-07T17:59:14.990Z,10.85
2022-11-07T18:00:46.595Z,17.77
2022-11-07T18:02:19.979Z,12.02
2022-11-07T18:03:53.166Z,18.40
2022-11-07T18:05:31.818Z,14.90
2022-11-07T18:07:04.869Z,8.70
2022-11-07T18:08:51.733Z,12.13
2022-11-07T18:10:24.236Z,11.65
2022-11-07T18:11:55.779Z,12.60
2022-11-07T18:13:27.419Z,12.10
2022-11-07T18:14:59.076Z,10.30
2022-11-07T18:16:33.367Z,12.90
2022-11-07T18:18:10.665Z,10.82
2022-11-07T18:19:42.953Z,11.90
2022-11-07T18:21:14.542Z,9.25
2022-11-07T18:22:46.170Z,9.82
2022-11-07T18:24:17.928Z,13.88
2022-11-07T18:25:49.822Z,10.38
2022-11-07T18:27:21.400Z,13.18
2022-11-07T18:28:53.729Z,12.90
2022-11-07T18:30:25.432Z,12.98
2022-11-07T18:31:56.987Z,14.35
2022-11-07T18:33:29.189Z,9.15
2022-11-07T18:35:00.820Z,9.15
2022-11-07T18:36:38.195Z,11.82
2022-11-07T18:38:09.720Z,16.80
2022-11-07T18:39:41.359Z,13.38
2022-11-07T18:41:15.362Z,14.98
2022-11-07T18:42:47.030Z,11.52
2022-11-07T18:44:19.371Z,14.73
2022-11-07T18:45:50.948Z,19.75
2022-11-07T18:47:22.903Z,17.20
2022-11-07T18:48:54.474Z,17.00
2022-11-07T18:50:26.055Z,16.23
2022-11-07T18:51:57.646Z,16.52
2022-11-07T18:53:30.118Z,21.88
2022-11-07T18:55:01.671Z,22.67
2022-11-07T18:56:33.463Z,18.67
2022-11-07T18:58:05.237Z,14.90
2022-11-07T18:59:36.795Z,13.18
2022-11-07T19:01:14.433Z,15.25
2022-11-07T19:02:46.071Z,12.80
2022-11-07T19:04:17.750Z,10.88
2022-11-07T19:05:50.135Z,11.45
2022-11-07T19:07:21.754Z,11.15
2022-11-07T19:08:53.866Z,12.30
2022-11-07T19:10:25.544Z,10.93
2022-11-07T19:11:58.446Z,10.93
2022-11-07T19:13:30.218Z,9.90
2022-11-07T19:15:02.079Z,12.13
2022-11-07T19:16:33.669Z,10.65
2022-11-07T19:18:05.606Z,8.43
2022-11-07T19:19:37.221Z,8.40
2022-11-07T19:21:08.927Z,11.30
2022-11-07T19:22:40.516Z,10.77
2022-11-07T19:24:13.149Z,8.00
2022-11-07T19:25:44.929Z,9.85
2022-11-07T19:27:17.166Z,9.00
2022-11-07T19:28:48.937Z,10.13
2022-11-07T19:30:20.597Z,8.02
2022-11-07T19:31:52.203Z,7.55
2022-11-07T19:33:24.191Z,8.43
2022-11-07T19:34:55.784Z,9.80
2022-11-07T19:36:27.556Z,9.30
2022-11-07T19:37:59.297Z,7.32
2022-11-07T19:39:36.402Z,6.28
2022-11-07T19:41:09.028Z,7.93
2022-11-07T19:42:40.751Z,10.48
2022-11-07T19:44:12.453Z,7.60
2022-11-07T19:45:44.127Z,7.25
2022-11-07T19:47:15.800Z,11.07
2022-11-07T19:48:48.136Z,10.63
2022-11-07T19:50:20.696Z,9.05
2022-11-07T19:51:52.529Z,10.23
2022-11-07T19:53:24.094Z,8.35
2022-11-07T19:54:55.700Z,12.38
2022-11-07T19:56:30.291Z,8.20
2022-11-07T19:58:01.935Z,7.38
2022-11-07T19:59:33.575Z,11.95
2022-11-07T20:01:16.741Z,11.63
2022-11-07T20:02:48.672Z,13.57
2022-11-07T20:04:20.529Z,15.30
2022-11-07T20:05:52.303Z,10.82
2022-11-07T20:07:23.904Z,7.28
2022-11-07T20:08:55.869Z,9.88
2022-11-07T20:10:27.899Z,10.15
2022-11-07T20:11:59.650Z,12.43
2022-11-07T20:13:31.302Z,8.43
2022-11-07T20:15:02.940Z,11.73
2022-11-07T20:16:36.844Z,12.13
2022-11-07T20:18:08.479Z,10.73
2022-11-07T20:19:40.108Z,11.77
2022-11-07T20:21:15.194Z,12.23
2022-11-07T20:22:49.667Z,12.10
2022-11-07T20:24:21.292Z,12.25
2022-11-07T20:25:53.187Z,13.68
2022-11-07T20:27:25.871Z,10.65
2022-11-07T20:28:59.553Z,11.63
2022-11-07T20:30:31.862Z,15.18
2022-11-07T20:32:04.411Z,12.43
2022-11-07T20:33:36.734Z,14.30
2022-11-07T20:35:09.274Z,13.10
2022-11-07T20:36:41.772Z,14.63
2022-11-07T20:38:13.773Z,13.60
2022-11-07T20:39:47.034Z,15.85
2022-11-07T20:41:18.899Z,16.67
2022-11-07T20:42:50.827Z,12.93
2022-11-07T20:44:23.732Z,13.57
2022-11-07T20:45:56.593Z,16.20
2022-11-07T20:47:28.491Z,14.35
2022-11-07T20:49:06.068Z,15.35
2022-11-07T20:50:38.333Z,14.82
2022-11-07T20:52:09.991Z,18.48
2022-11-07T20:53:48.461Z,18.85
2022-11-07T20:55:21.674Z,18.90
2022-11-07T20:56:53.321Z,14.68
2022-11-07T20:58:24.995Z,14.10
2022-11-07T20:59:56.669Z,12.13